Estill, Mississippi
Current Conditions -  °F | °C
As of 9:53 PM on Tuesday 21 Oct 2014 (Local Time) from KGLH Reporting Station
Clear Clear  
Wind Chill: 64°   Ceiling: Unl
Heat Index: 64°   Visibility: 10mi
Dew Point: 53°   Wind: 7mph
Humidity: 67%   Direction: 40°NE
Pressure: 30.07"   Gusts: NA
Location:  33.1785°N, 90.8086°W
Report Text: KGLH 220253Z AUTO 04006KT 10SM CLR 18/12 A3007 RMK AO2 SLP189 T01780117 53017
Loading
Personal Weather Stations






























Interactive Weather Map
Tropical Storm Tracking
New forecast layout! Learn more

10-Day Weather Forecast

Advertisements
Track Severe Weather on mobile